Time;durP1;ratioP1;P1;durP2;ratioP2;P2;SDS_P1;SDS_P2;PMS_P1;PMS_P2;Temp;Humidity;BMP_temperature;BMP_pressure;BME280_temperature;BME280_humidity;BME280_pressure;Samples;Min_cycle;Max_cycle;Signal;HPM_P1;HPM_P2
2021/09/30 00:01:21;;;;;;;2.20;1.00;;;11.70;91.10;;;;;;4991711;28;20070;-85
2021/09/30 00:03:47;;;;;;;1.30;0.57;;;11.70;90.80;;;;;;4990561;28;21618;-85
2021/09/30 00:06:12;;;;;;;0.88;0.60;;;11.70;90.60;;;;;;4988436;28;20377;-85
2021/09/30 00:08:38;;;;;;;2.22;0.80;;;11.60;90.00;;;;;;4990775;28;20042;-85
2021/09/30 00:11:10;;;;;;;1.15;0.80;;;11.60;90.00;;;;;;4988358;28;20490;-85
2021/09/30 00:14:23;;;;;;;0.80;0.80;;;11.50;90.10;;;;;;4991793;28;20038;-85
2021/09/30 00:32:56;;;;;;;2.47;0.70;;;11.50;90.30;;;;;;4988337;28;20061;-85
2021/09/30 00:35:37;;;;;;;0.98;0.93;;;11.40;90.50;;;;;;4989314;28;20053;-85
2021/09/30 00:47:01;;;;;;;1.08;1.00;;;11.30;90.00;;;;;;4990705;28;20072;-85
2021/09/30 00:51:58;;;;;;;1.08;0.80;;;11.20;89.10;;;;;;4989303;28;20065;-85
2021/09/30 02:25:05;;;;;;;0.70;0.70;;;9.80;90.20;;;;;;4989099;28;20044;-85
2021/09/30 03:00:14;;;;;;;1.83;1.08;;;9.60;91.60;;;;;;4988958;28;20077;-85
2021/09/30 03:02:44;;;;;;;2.30;0.88;;;9.60;91.40;;;;;;4988327;28;20046;-85
2021/09/30 03:05:12;;;;;;;1.00;0.90;;;9.60;91.00;;;;;;4987689;28;20050;-85
2021/09/30 03:07:40;;;;;;;1.23;0.85;;;9.60;90.70;;;;;;4990422;28;20173;-85
2021/09/30 03:10:06;;;;;;;0.98;0.90;;;9.60;90.80;;;;;;4994797;28;20042;-85
2021/09/30 03:12:33;;;;;;;0.93;0.80;;;9.60;90.40;;;;;;4995225;28;20022;-85
2021/09/30 03:17:58;;;;;;;1.92;1.27;;;9.50;90.40;;;;;;4974070;28;20038;-85
2021/09/30 03:23:18;;;;;;;3.65;1.73;;;9.50;91.10;;;;;;4993029;28;20033;-85
2021/09/30 03:25:48;;;;;;;2.55;1.20;;;9.50;91.50;;;;;;4994095;28;20034;-85
2021/09/30 03:28:17;;;;;;;3.78;1.33;;;9.40;91.90;;;;;;4988748;28;20034;-85
2021/09/30 03:30:44;;;;;;;4.00;1.17;;;9.40;91.70;;;;;;4987141;28;20097;-85
2021/09/30 03:33:11;;;;;;;1.98;1.20;;;9.40;91.50;;;;;;4991538;28;20029;-85
2021/09/30 03:35:38;;;;;;;5.53;1.20;;;9.40;91.80;;;;;;4991435;28;20042;-85
2021/09/30 03:38:06;;;;;;;2.55;1.10;;;9.40;91.80;;;;;;4991410;28;20053;-85
2021/09/30 03:40:31;;;;;;;1.63;0.98;;;9.30;92.20;;;;;;4992240;28;20045;-85
2021/09/30 03:42:57;;;;;;;2.33;1.05;;;9.30;92.20;;;;;;4990224;28;20038;-85
2021/09/30 03:45:23;;;;;;;1.60;1.15;;;9.30;92.00;;;;;;4989789;28;20033;-85
2021/09/30 03:47:49;;;;;;;2.38;1.27;;;9.30;92.30;;;;;;4984834;28;20037;-85
2021/09/30 03:50:18;;;;;;;1.00;1.00;;;9.20;92.80;;;;;;4984372;28;20031;-85
2021/09/30 03:53:03;;;;;;;1.17;1.05;;;9.30;92.50;;;;;;4987166;28;20026;-85
2021/09/30 04:00:51;;;;;;;1.58;1.15;;;9.10;90.80;;;;;;4990171;28;20737;-85
2021/09/30 04:03:17;;;;;;;1.00;0.90;;;9.10;90.80;;;;;;4987971;28;20495;-84
2021/09/30 04:05:42;;;;;;;1.58;0.80;;;9.10;90.90;;;;;;4989128;28;20026;-84
2021/09/30 04:08:08;;;;;;;1.33;1.20;;;9.10;91.10;;;;;;4994464;28;20039;-84
2021/09/30 04:10:34;;;;;;;1.75;1.50;;;9.10;91.90;;;;;;4987246;28;20085;-84
2021/09/30 04:13:00;;;;;;;3.13;1.25;;;9.20;91.80;;;;;;4991091;28;20037;-84
2021/09/30 04:15:26;;;;;;;1.13;1.10;;;9.10;91.10;;;;;;4988902;28;20026;-84
2021/09/30 04:17:51;;;;;;;1.17;1.00;;;9.00;90.80;;;;;;4990041;28;20416;-84
2021/09/30 04:20:17;;;;;;;0.80;0.80;;;9.00;91.00;;;;;;4990566;28;20031;-84
2021/09/30 04:22:46;;;;;;;0.93;0.93;;;9.00;90.90;;;;;;4991232;28;20032;-84
2021/09/30 04:25:12;;;;;;;1.08;1.00;;;8.90;90.60;;;;;;4990207;28;20064;-84
2021/09/30 04:27:38;;;;;;;1.20;1.10;;;8.80;90.60;;;;;;4992194;28;20385;-84
2021/09/30 04:30:05;;;;;;;1.00;1.00;;;8.80;90.60;;;;;;4990527;28;20030;-84
2021/09/30 04:32:31;;;;;;;2.80;1.20;;;8.80;91.00;;;;;;5004263;28;20045;-84
2021/09/30 04:34:57;;;;;;;1.13;1.10;;;8.80;91.30;;;;;;4992657;28;20026;-84
2021/09/30 04:37:23;;;;;;;4.95;1.33;;;8.70;91.70;;;;;;4990320;28;20495;-84
2021/09/30 04:39:50;;;;;;;1.98;1.20;;;8.80;91.90;;;;;;4993930;28;20045;-85
2021/09/30 04:42:16;;;;;;;2.10;1.10;;;8.80;92.10;;;;;;4990156;28;20070;-85
2021/09/30 04:44:41;;;;;;;1.85;1.10;;;8.80;92.10;;;;;;4988609;28;20438;-85
2021/09/30 04:47:07;;;;;;;1.02;1.02;;;8.70;92.20;;;;;;4989242;28;20101;-84
2021/09/30 04:49:33;;;;;;;1.17;0.98;;;8.80;92.30;;;;;;4987187;28;20029;-84
2021/09/30 04:51:58;;;;;;;2.28;1.00;;;8.80;92.40;;;;;;4991502;28;20051;-84
2021/09/30 04:54:24;;;;;;;1.10;1.10;;;8.80;92.40;;;;;;4992038;28;20053;-84
2021/09/30 04:56:50;;;;;;;1.42;0.90;;;8.80;92.40;;;;;;4992624;28;20096;-84
2021/09/30 04:59:16;;;;;;;1.50;1.40;;;8.70;92.60;;;;;;4992357;28;20038;-84
2021/09/30 05:01:41;;;;;;;2.28;1.35;;;8.70;93.00;;;;;;4986824;28;20042;-84
2021/09/30 05:04:07;;;;;;;0.80;0.80;;;8.70;92.60;;;;;;4987112;28;20034;-84
2021/09/30 05:06:32;;;;;;;3.10;1.27;;;8.70;91.20;;;;;;4991611;28;20088;-84
2021/09/30 05:09:00;;;;;;;1.25;1.15;;;8.60;91.00;;;;;;4995491;28;20392;-84
2021/09/30 05:11:35;;;;;;;1.10;1.00;;;8.70;91.20;;;;;;4988625;28;20517;-84
2021/09/30 05:14:02;;;;;;;1.73;1.13;;;8.70;90.60;;;;;;4989310;28;20033;-84
2021/09/30 05:16:28;;;;;;;2.80;1.13;;;8.60;91.00;;;;;;4988952;28;20080;-84
2021/09/30 05:18:56;;;;;;;5.80;1.30;;;8.60;91.30;;;;;;4996705;28;20034;-84
2021/09/30 05:21:22;;;;;;;3.22;1.25;;;8.60;91.30;;;;;;4993932;28;20026;-84
2021/09/30 05:23:48;;;;;;;2.05;1.50;;;8.60;91.40;;;;;;4991713;28;20401;-84
2021/09/30 05:26:14;;;;;;;3.88;1.40;;;8.60;91.30;;;;;;5004019;28;20035;-84
2021/09/30 05:28:41;;;;;;;2.58;1.30;;;8.60;91.60;;;;;;4987538;28;20042;-84
2021/09/30 05:31:09;;;;;;;1.40;1.30;;;8.50;92.00;;;;;;4990279;28;20043;-84
2021/09/30 05:33:35;;;;;;;;;;;8.50;92.00;;;;;;4989958;28;20068;-84
2021/09/30 05:36:02;;;;;;;1.10;1.00;;;8.50;91.70;;;;;;4991709;28;19997;-84
2021/09/30 05:38:36;;;;;;;2.93;1.23;;;8.40;91.60;;;;;;4991465;28;20746;-84
2021/09/30 05:41:03;;;;;;;2.67;1.45;;;8.30;91.80;;;;;;4987568;28;20277;-84
2021/09/30 05:43:32;;;;;;;1.10;1.10;;;8.20;92.90;;;;;;5001915;28;20095;-84
2021/09/30 05:45:58;;;;;;;1.00;1.00;;;8.10;93.50;;;;;;5003063;28;20026;-84
2021/09/30 05:48:25;;;;;;;5.82;1.52;;;8.00;93.80;;;;;;4989749;28;20034;-84
2021/09/30 05:50:51;;;;;;;1.95;1.30;;;8.00;94.00;;;;;;4988563;28;20021;-84
2021/09/30 05:53:18;;;;;;;2.28;1.60;;;8.00;94.00;;;;;;4987691;28;20034;-84
2021/09/30 05:55:45;;;;;;;2.15;1.40;;;7.90;94.20;;;;;;4976917;28;20060;-84
2021/09/30 05:58:11;;;;;;;2.22;1.42;;;7.90;94.30;;;;;;4985583;28;20027;-85
2021/09/30 06:11:13;;;;;;;1.38;1.08;;;8.20;92.60;;;;;;4991478;28;20566;-85
2021/09/30 06:16:09;;;;;;;2.42;1.10;;;8.20;92.10;;;;;;4987194;28;20023;-85
2021/09/30 06:18:35;;;;;;;1.05;0.90;;;8.20;92.20;;;;;;4991201;28;20045;-85
2021/09/30 06:21:01;;;;;;;1.73;1.00;;;8.30;92.30;;;;;;4991997;28;20485;-85
2021/09/30 06:23:26;;;;;;;1.58;1.20;;;8.30;92.50;;;;;;4987822;28;20034;-84
2021/09/30 06:25:52;;;;;;;1.65;1.30;;;8.20;93.20;;;;;;4988484;28;20038;-85
2021/09/30 06:28:18;;;;;;;2.20;1.27;;;8.30;93.30;;;;;;4971891;28;20489;-85
2021/09/30 06:30:43;;;;;;;4.50;1.95;;;8.40;93.70;;;;;;4987376;28;20100;-85
2021/09/30 06:33:09;;;;;;;1.63;1.10;;;8.40;93.50;;;;;;4985611;28;20113;-85
2021/09/30 06:35:35;;;;;;;6.05;1.33;;;8.50;93.50;;;;;;4987987;28;20674;-85
2021/09/30 06:38:00;;;;;;;2.60;1.20;;;8.60;93.40;;;;;;4988180;28;20027;-85
2021/09/30 06:40:26;;;;;;;2.72;1.40;;;8.60;93.70;;;;;;4992127;28;20037;-84
2021/09/30 06:42:52;;;;;;;1.55;1.30;;;8.70;93.50;;;;;;4990492;28;20030;-85
2021/09/30 06:45:18;;;;;;;1.35;1.25;;;8.80;93.20;;;;;;4991596;28;20037;-85
2021/09/30 06:47:44;;;;;;;1.15;1.00;;;8.80;93.40;;;;;;4990472;28;20039;-85
2021/09/30 06:50:11;;;;;;;1.13;1.00;;;8.80;93.20;;;;;;4991762;28;20026;-85
2021/09/30 06:52:37;;;;;;;1.85;1.20;;;8.90;93.10;;;;;;4990506;28;20177;-85
2021/09/30 06:55:04;;;;;;;0.90;0.90;;;8.90;93.00;;;;;;4993407;28;20553;-85
2021/09/30 06:57:30;;;;;;;1.83;1.00;;;9.00;92.90;;;;;;5001541;28;20500;-85
2021/09/30 07:00:00;;;;;;;1.08;1.08;;;9.00;93.10;;;;;;4992020;28;20177;-85
2021/09/30 07:02:26;;;;;;;1.55;1.00;;;9.00;92.80;;;;;;4987950;28;20129;-85
2021/09/30 07:04:51;;;;;;;1.73;0.98;;;9.10;92.80;;;;;;4992369;28;20156;-84
2021/09/30 07:07:17;;;;;;;1.02;0.80;;;9.10;92.60;;;;;;4992587;28;20054;-84
2021/09/30 07:09:45;;;;;;;1.45;0.90;;;9.20;91.90;;;;;;4990053;28;20404;-85
2021/09/30 07:12:11;;;;;;;2.30;1.00;;;9.20;91.40;;;;;;4992237;28;20074;-85
2021/09/30 07:14:37;;;;;;;1.20;1.10;;;9.20;91.40;;;;;;4990631;28;20088;-85
2021/09/30 07:17:03;;;;;;;3.53;1.17;;;9.30;91.90;;;;;;4988817;28;20503;-85
2021/09/30 07:19:31;;;;;;;4.55;1.10;;;9.30;92.00;;;;;;4991432;28;20030;-84
2021/09/30 07:21:56;;;;;;;0.95;0.95;;;9.40;92.10;;;;;;4988141;28;20038;-85
2021/09/30 07:24:22;;;;;;;1.30;1.20;;;9.40;91.60;;;;;;4990232;28;20096;-84
2021/09/30 07:26:48;;;;;;;1.42;1.05;;;9.40;91.00;;;;;;4990719;28;20037;-84
2021/09/30 07:29:14;;;;;;;1.55;1.10;;;9.50;91.00;;;;;;4987564;28;20031;-84
2021/09/30 07:31:42;;;;;;;3.80;1.05;;;9.50;91.20;;;;;;4991994;28;20030;-84
2021/09/30 07:34:11;;;;;;;2.38;1.13;;;9.60;91.20;;;;;;4991888;28;20164;-84
2021/09/30 07:36:42;;;;;;;2.33;1.02;;;9.50;90.70;;;;;;4993262;28;20022;-84
2021/09/30 07:39:08;;;;;;;1.20;1.10;;;9.60;90.60;;;;;;4992829;28;20035;-84
2021/09/30 07:41:35;;;;;;;1.58;1.10;;;9.60;90.80;;;;;;4988770;28;20041;-85
2021/09/30 07:44:03;;;;;;;4.07;1.48;;;9.70;90.80;;;;;;4990618;28;20608;-84
2021/09/30 07:46:33;;;;;;;2.37;1.00;;;9.70;90.80;;;;;;5006138;28;20066;-84
2021/09/30 07:48:59;;;;;;;0.85;0.80;;;9.80;90.30;;;;;;4989472;28;20030;-84
2021/09/30 07:51:26;;;;;;;1.10;1.00;;;9.80;90.30;;;;;;4992935;28;20030;-84
2021/09/30 07:53:52;;;;;;;3.17;1.90;;;9.90;90.30;;;;;;4988381;28;20026;-85
2021/09/30 07:56:18;;;;;;;4.10;1.15;;;10.00;90.30;;;;;;4989919;28;20031;-85
2021/09/30 07:58:43;;;;;;;0.95;0.90;;;10.00;90.60;;;;;;5007616;28;20041;-84
2021/09/30 08:01:09;;;;;;;2.00;0.90;;;10.10;90.40;;;;;;4991422;28;21477;-84
2021/09/30 08:03:35;;;;;;;0.73;0.73;;;10.20;89.20;;;;;;4987821;28;20037;-85
2021/09/30 08:06:01;;;;;;;2.40;0.85;;;10.20;88.60;;;;;;4989769;28;20034;-84
2021/09/30 08:08:27;;;;;;;3.28;1.00;;;10.30;88.60;;;;;;4989248;28;20069;-84
2021/09/30 08:10:59;;;;;;;1.20;0.82;;;10.40;86.70;;;;;;4991021;28;20030;-84
2021/09/30 08:13:26;;;;;;;0.80;0.80;;;10.50;87.30;;;;;;5001910;28;20045;-84
2021/09/30 08:15:52;;;;;;;2.20;1.00;;;10.50;88.50;;;;;;4993867;28;20045;-84
2021/09/30 08:18:18;;;;;;;2.00;1.35;;;10.70;86.80;;;;;;4989383;28;20019;-84
2021/09/30 08:20:44;;;;;;;1.00;0.90;;;10.70;87.90;;;;;;4993194;28;20050;-84
2021/09/30 08:23:14;;;;;;;0.90;0.90;;;10.80;88.80;;;;;;4989527;28;20118;-84
2021/09/30 08:25:41;;;;;;;0.90;0.90;;;10.90;87.40;;;;;;4989798;28;20066;-84
2021/09/30 08:28:07;;;;;;;0.70;0.70;;;11.00;85.90;;;;;;4992565;28;20030;-84
2021/09/30 08:30:33;;;;;;;1.35;0.70;;;11.00;86.10;;;;;;4988646;28;20505;-84
2021/09/30 08:32:59;;;;;;;2.10;1.00;;;11.10;85.70;;;;;;4989722;28;20022;-84
2021/09/30 08:35:25;;;;;;;0.95;0.77;;;11.10;85.70;;;;;;4992368;28;20034;-84
2021/09/30 08:37:51;;;;;;;0.93;0.82;;;11.10;85.00;;;;;;4987147;28;20057;-84
2021/09/30 08:40:17;;;;;;;1.20;0.80;;;11.10;85.10;;;;;;4988544;28;20484;-84
2021/09/30 08:42:47;;;;;;;1.98;1.20;;;11.20;84.30;;;;;;4987466;28;20038;-84
2021/09/30 08:45:20;;;;;;;4.28;0.88;;;11.20;84.40;;;;;;4995286;28;20477;-84
2021/09/30 08:48:04;;;;;;;1.00;0.90;;;11.20;83.50;;;;;;4990654;28;20026;-84
2021/09/30 08:50:33;;;;;;;0.60;0.60;;;11.20;84.20;;;;;;4994070;28;20034;-83
2021/09/30 08:53:01;;;;;;;0.68;0.68;;;11.20;84.40;;;;;;5007483;28;20026;-83
2021/09/30 08:55:27;;;;;;;1.30;0.70;;;11.20;83.50;;;;;;4990246;28;20027;-83
2021/09/30 08:57:53;;;;;;;1.70;0.90;;;11.20;82.90;;;;;;4994418;28;20046;-83
2021/09/30 09:00:20;;;;;;;0.77;0.77;;;11.20;82.00;;;;;;4992582;28;20030;-84
2021/09/30 09:02:49;;;;;;;0.93;0.70;;;11.20;82.60;;;;;;4990383;28;20026;-83
2021/09/30 09:05:16;;;;;;;0.73;0.70;;;11.20;81.80;;;;;;4988276;28;20050;-83
2021/09/30 09:07:59;;;;;;;1.05;0.60;;;11.20;81.10;;;;;;4991540;28;20050;-84
2021/09/30 09:10:29;;;;;;;0.82;0.70;;;11.30;81.20;;;;;;4991068;28;20030;-84
2021/09/30 09:13:07;;;;;;;2.50;0.70;;;11.40;80.30;;;;;;4989445;28;20027;-83
2021/09/30 09:15:42;;;;;;;;;;;11.30;76.10;;;;;;4996596;28;20048;-84
2021/09/30 09:18:33;;;;;;;1.15;0.52;;;11.40;76.90;;;;;;5003295;28;20351;-84
2021/09/30 09:21:23;;;;;;;2.80;0.70;;;11.50;77.10;;;;;;4987507;28;20033;-84
2021/09/30 09:23:54;;;;;;;1.20;0.57;;;11.50;76.60;;;;;;4990367;28;20026;-84
2021/09/30 09:26:32;;;;;;;0.32;0.32;;;11.60;77.90;;;;;;4987881;28;20113;-83
2021/09/30 09:29:07;;;;;;;0.50;0.50;;;11.70;75.20;;;;;;4989695;28;20037;-85
2021/09/30 09:31:45;;;;;;;1.55;0.70;;;11.70;75.90;;;;;;4988319;28;20062;-83
2021/09/30 09:34:28;;;;;;;0.60;0.50;;;11.70;77.60;;;;;;5003113;28;20023;-84
2021/09/30 09:37:14;;;;;;;1.40;0.70;;;11.80;75.40;;;;;;4998859;28;20034;-84
2021/09/30 09:39:41;;;;;;;1.83;0.52;;;11.70;76.30;;;;;;4989545;28;20030;-83
2021/09/30 09:42:09;;;;;;;1.65;0.60;;;11.70;76.30;;;;;;4988381;28;20037;-83
2021/09/30 09:44:55;;;;;;;6.82;4.57;;;11.70;75.20;;;;;;4991617;28;20865;-84
2021/09/30 09:47:24;;;;;;;1.08;0.70;;;11.80;75.60;;;;;;4992038;28;20062;-84
2021/09/30 09:50:19;;;;;;;0.50;0.50;;;11.90;73.60;;;;;;5009205;28;20037;-84
2021/09/30 09:52:46;;;;;;;1.10;0.40;;;12.10;73.30;;;;;;4990270;28;20130;-84
2021/09/30 09:55:26;;;;;;;2.25;0.45;;;12.10;72.30;;;;;;5004775;28;20425;-84
2021/09/30 09:58:07;;;;;;;0.98;0.55;;;12.20;73.40;;;;;;4992451;28;20389;-84
2021/09/30 10:00:35;;;;;;;0.50;0.50;;;12.30;74.00;;;;;;4988971;28;20046;-84
2021/09/30 10:03:18;;;;;;;1.23;0.50;;;12.50;72.90;;;;;;4992169;28;20026;-84
2021/09/30 10:05:46;;;;;;;0.73;0.40;;;12.60;71.40;;;;;;4989927;28;20031;-84
2021/09/30 10:08:14;;;;;;;1.85;0.68;;;12.60;72.00;;;;;;4990287;28;20097;-84
2021/09/30 10:10:41;;;;;;;0.43;0.43;;;12.60;72.40;;;;;;4989592;28;20038;-84
2021/09/30 10:13:07;;;;;;;0.95;0.50;;;12.70;72.60;;;;;;4993744;28;20041;-84
2021/09/30 10:15:37;;;;;;;0.50;0.50;;;12.70;71.20;;;;;;4989671;28;20022;-84
2021/09/30 10:18:04;;;;;;;0.40;0.40;;;12.80;72.20;;;;;;5004754;28;20034;-84
2021/09/30 10:20:31;;;;;;;0.82;0.47;;;12.90;71.80;;;;;;5005697;28;20023;-84
2021/09/30 10:22:57;;;;;;;2.85;0.85;;;12.90;69.20;;;;;;4990803;28;20038;-84
2021/09/30 10:25:41;;;;;;;1.33;0.60;;;12.90;69.30;;;;;;4991487;28;20034;-84
2021/09/30 10:28:09;;;;;;;1.30;0.40;;;13.00;69.40;;;;;;4993074;28;20041;-83
2021/09/30 10:30:49;;;;;;;1.65;0.50;;;13.00;69.70;;;;;;4989705;28;20045;-84
2021/09/30 10:33:39;;;;;;;0.68;0.40;;;13.10;70.60;;;;;;4988727;28;20049;-84
2021/09/30 10:36:27;;;;;;;0.63;0.43;;;13.00;70.60;;;;;;4972916;28;20030;-84
2021/09/30 10:39:15;;;;;;;2.30;0.75;;;13.00;69.30;;;;;;5001474;28;20032;-84
2021/09/30 10:41:41;;;;;;;0.75;0.68;;;13.00;66.80;;;;;;4989230;28;20133;-84
2021/09/30 10:44:17;;;;;;;1.30;0.57;;;12.90;69.00;;;;;;4990477;28;20121;-84
2021/09/30 10:46:45;;;;;;;0.93;0.65;;;12.90;69.00;;;;;;4994210;28;20026;-83
2021/09/30 10:49:28;;;;;;;1.65;0.63;;;13.00;69.40;;;;;;4986980;28;20027;-85
2021/09/30 10:52:16;;;;;;;1.50;0.40;;;13.00;68.10;;;;;;4991390;28;20064;-84
2021/09/30 10:55:10;;;;;;;1.17;0.40;;;13.10;69.00;;;;;;4990595;28;20025;-85
2021/09/30 10:57:42;;;;;;;3.60;0.50;;;13.10;67.70;;;;;;4970228;28;20058;-83
2021/09/30 11:00:18;;;;;;;1.75;0.52;;;13.20;69.30;;;;;;4988115;28;20122;-83
2021/09/30 11:03:02;;;;;;;0.40;0.35;;;13.10;68.40;;;;;;4990448;28;20034;-83
2021/09/30 11:05:31;;;;;;;2.20;0.70;;;13.20;67.10;;;;;;4988527;28;20026;-84
2021/09/30 11:08:18;;;;;;;1.13;0.43;;;13.20;67.60;;;;;;5008701;28;20061;-84
2021/09/30 11:11:12;;;;;;;1.70;0.63;;;13.30;67.90;;;;;;4995700;28;20038;-84
2021/09/30 11:13:56;;;;;;;1.02;0.52;;;13.20;65.20;;;;;;5002723;28;20070;-84
2021/09/30 11:16:39;;;;;;;1.67;0.52;;;13.20;63.00;;;;;;4992412;28;20026;-84
2021/09/30 11:19:22;;;;;;;2.25;0.47;;;13.20;66.30;;;;;;4995723;28;20049;-84
2021/09/30 11:21:49;;;;;;;0.50;0.50;;;13.20;66.40;;;;;;5008141;28;20110;-84
2021/09/30 11:24:23;;;;;;;2.42;0.43;;;13.30;66.60;;;;;;4998099;28;20033;-84
2021/09/30 11:26:49;;;;;;;0.65;0.45;;;13.40;65.60;;;;;;4993510;28;20047;-84
2021/09/30 11:29:25;;;;;;;0.40;0.40;;;13.40;65.80;;;;;;4995813;28;20022;-83
2021/09/30 11:31:56;;;;;;;1.25;0.43;;;13.30;65.10;;;;;;4994016;28;20879;-84
2021/09/30 11:34:29;;;;;;;1.20;0.60;;;13.30;63.00;;;;;;5012086;28;20034;-83
2021/09/30 11:36:58;;;;;;;1.48;0.60;;;13.20;63.60;;;;;;4993274;28;20022;-83
2021/09/30 11:39:34;;;;;;;1.65;0.47;;;13.30;64.80;;;;;;4995630;28;20031;-84
2021/09/30 11:42:01;;;;;;;1.15;0.60;;;13.30;65.80;;;;;;4990424;28;20034;-84
2021/09/30 11:44:26;;;;;;;0.30;0.30;;;13.30;64.90;;;;;;4992349;28;20034;-84
2021/09/30 11:46:55;;;;;;;1.00;0.50;;;13.30;65.50;;;;;;4991855;28;20172;-83
2021/09/30 11:49:21;;;;;;;;;;;13.30;64.30;;;;;;5005675;28;20080;-83
2021/09/30 11:51:55;;;;;;;1.15;0.50;;;13.30;65.20;;;;;;4993249;28;19917;-83
2021/09/30 11:54:32;;;;;;;0.45;0.40;;;13.20;64.20;;;;;;4990037;28;20587;-83
2021/09/30 11:56:58;;;;;;;0.57;0.50;;;13.30;64.70;;;;;;5005586;28;20023;-83
2021/09/30 11:59:25;;;;;;;1.95;0.60;;;13.30;64.30;;;;;;4992734;28;20034;-84
2021/09/30 12:01:53;;;;;;;0.65;0.50;;;13.30;64.10;;;;;;4988375;28;20157;-83
2021/09/30 12:04:38;;;;;;;0.85;0.50;;;13.30;63.70;;;;;;4991060;28;20750;-83
2021/09/30 12:07:04;;;;;;;1.23;0.50;;;13.40;64.30;;;;;;5006589;28;20045;-83
2021/09/30 12:09:34;;;;;;;0.35;0.30;;;13.50;63.60;;;;;;5009104;28;20504;-83
2021/09/30 12:12:04;;;;;;;0.60;0.55;;;13.50;64.60;;;;;;4990244;28;20060;-83
2021/09/30 12:14:45;;;;;;;3.05;0.63;;;13.50;64.70;;;;;;4992863;28;20031;-83
2021/09/30 12:17:18;;;;;;;2.88;0.55;;;13.50;62.70;;;;;;4991063;28;20026;-83
2021/09/30 12:19:48;;;;;;;0.82;0.40;;;13.50;63.80;;;;;;4990519;28;20041;-84
2021/09/30 12:22:26;;;;;;;0.45;0.45;;;13.60;64.00;;;;;;4989076;28;20151;-84
2021/09/30 12:25:02;;;;;;;0.88;0.40;;;13.60;62.30;;;;;;4990847;28;20540;-84
2021/09/30 12:27:34;;;;;;;1.00;0.40;;;13.60;62.70;;;;;;4992694;28;20121;-84
2021/09/30 12:30:12;;;;;;;0.77;0.70;;;13.60;60.70;;;;;;4989916;28;20022;-84
2021/09/30 12:32:42;;;;;;;1.10;0.60;;;13.70;62.20;;;;;;5006910;28;20064;-84
2021/09/30 12:35:16;;;;;;;0.50;0.32;;;13.60;62.00;;;;;;4994987;28;20431;-83
2021/09/30 12:37:49;;;;;;;0.30;0.30;;;13.70;62.00;;;;;;4987994;28;21046;-84
2021/09/30 12:40:22;;;;;;;0.85;0.47;;;13.70;58.20;;;;;;4992754;28;20440;-83
2021/09/30 12:43:03;;;;;;;0.50;0.40;;;13.70;59.10;;;;;;4999021;28;21900;-83
2021/09/30 12:45:30;;;;;;;1.17;0.50;;;13.70;59.40;;;;;;4990622;28;20105;-83
2021/09/30 12:48:12;;;;;;;0.30;0.30;;;13.60;60.20;;;;;;4972416;28;20493;-84
2021/09/30 12:50:58;;;;;;;0.38;0.38;;;13.60;59.90;;;;;;4985446;28;20040;-84
2021/09/30 12:53:25;;;;;;;2.13;0.40;;;13.70;58.40;;;;;;4989172;28;20089;-84
2021/09/30 12:56:01;;;;;;;4.22;0.47;;;13.80;58.50;;;;;;4990794;28;20018;-84
2021/09/30 12:58:34;;;;;;;0.30;0.30;;;13.80;57.90;;;;;;5009570;28;20575;-84
2021/09/30 13:01:25;;;;;;;1.05;0.60;;;13.90;58.60;;;;;;4985472;28;20027;-84
2021/09/30 13:04:11;;;;;;;0.28;0.28;;;13.90;60.20;;;;;;4988822;28;20021;-84
2021/09/30 13:06:41;;;;;;;0.80;0.50;;;14.00;59.00;;;;;;4987204;28;20030;-84
2021/09/30 13:09:21;;;;;;;0.80;0.45;;;14.00;58.50;;;;;;4993312;28;20034;-83
2021/09/30 13:11:53;;;;;;;0.98;0.50;;;13.90;58.70;;;;;;4989045;28;20026;-84
2021/09/30 13:14:28;;;;;;;2.83;0.60;;;13.80;61.00;;;;;;4988618;28;20027;-84
2021/09/30 13:17:19;;;;;;;0.35;0.35;;;13.80;61.80;;;;;;4987348;28;20504;-83
2021/09/30 13:20:00;;;;;;;0.40;0.40;;;13.80;57.80;;;;;;4993960;28;20516;-84
2021/09/30 13:22:33;;;;;;;0.32;0.32;;;13.80;60.60;;;;;;4990835;28;20113;-84
2021/09/30 13:25:21;;;;;;;0.93;0.40;;;13.80;59.20;;;;;;4990755;28;20026;-84
2021/09/30 13:27:49;;;;;;;1.15;0.40;;;13.90;58.40;;;;;;4985973;28;20527;-84
2021/09/30 13:30:16;;;;;;;;;;;13.90;58.50;;;;;;4990587;28;20043;-84
2021/09/30 13:32:43;;;;;;;1.08;0.43;;;13.90;57.20;;;;;;4991751;28;19924;-84
2021/09/30 13:35:10;;;;;;;0.47;0.28;;;13.70;56.80;;;;;;4989113;28;20105;-84
2021/09/30 13:37:36;;;;;;;1.70;0.52;;;13.70;58.40;;;;;;5004829;28;20034;-84
2021/09/30 13:40:06;;;;;;;0.47;0.40;;;13.70;57.80;;;;;;4993460;28;20737;-84
2021/09/30 13:42:35;;;;;;;0.63;0.43;;;13.80;58.00;;;;;;4992248;28;20117;-84
2021/09/30 13:45:06;;;;;;;3.33;0.50;;;13.80;58.40;;;;;;4994291;28;20121;-84
2021/09/30 13:47:32;;;;;;;2.90;0.60;;;13.90;58.90;;;;;;4989745;28;20044;-84
2021/09/30 13:49:58;;;;;;;0.40;0.40;;;13.90;60.10;;;;;;4992097;28;20109;-84
2021/09/30 13:52:25;;;;;;;0.60;0.50;;;13.90;56.20;;;;;;4988785;28;20034;-84
2021/09/30 13:54:51;;;;;;;1.02;0.30;;;13.80;56.10;;;;;;4995305;28;20060;-84
2021/09/30 13:57:16;;;;;;;0.47;0.32;;;13.80;56.60;;;;;;4990185;28;20045;-84
2021/09/30 13:59:43;;;;;;;0.30;0.30;;;13.90;59.00;;;;;;4991069;28;20032;-84
2021/09/30 14:02:09;;;;;;;0.98;0.38;;;14.00;57.90;;;;;;4992894;28;20446;-85
2021/09/30 14:04:35;;;;;;;0.43;0.43;;;14.00;58.80;;;;;;4995258;28;20022;-84
2021/09/30 14:07:08;;;;;;;0.25;0.25;;;14.00;59.20;;;;;;4991676;28;20038;-84
2021/09/30 14:09:36;;;;;;;1.63;0.50;;;14.00;58.80;;;;;;4988122;28;20057;-84
2021/09/30 14:12:04;;;;;;;1.20;0.60;;;14.00;57.40;;;;;;4988934;28;20080;-84
2021/09/30 14:14:30;;;;;;;0.55;0.40;;;14.00;57.50;;;;;;4987805;28;20057;-84
2021/09/30 14:16:56;;;;;;;1.52;0.40;;;14.10;58.00;;;;;;4986208;28;20544;-84
2021/09/30 14:19:26;;;;;;;2.00;0.63;;;14.10;57.80;;;;;;4986643;28;20034;-84
2021/09/30 14:21:53;;;;;;;0.30;0.30;;;14.10;54.80;;;;;;4988984;28;20460;-84
2021/09/30 14:24:19;;;;;;;1.20;0.40;;;14.10;57.10;;;;;;4989839;28;20030;-85
2021/09/30 14:26:45;;;;;;;1.30;0.50;;;14.10;58.70;;;;;;4989156;28;20034;-84
2021/09/30 14:29:10;;;;;;;1.48;0.40;;;14.10;56.80;;;;;;4986858;28;20026;-84
2021/09/30 14:31:36;;;;;;;0.50;0.50;;;14.10;57.40;;;;;;4987178;28;22416;-83
2021/09/30 14:34:02;;;;;;;0.28;0.28;;;14.00;56.80;;;;;;4987363;28;20026;-83
2021/09/30 14:36:28;;;;;;;1.05;0.40;;;14.00;55.30;;;;;;4986695;28;22591;-84
2021/09/30 14:38:54;;;;;;;1.98;0.47;;;14.00;56.80;;;;;;4990174;28;21150;-84
2021/09/30 14:41:22;;;;;;;0.73;0.45;;;14.10;59.10;;;;;;4991384;28;20038;-84
2021/09/30 14:43:48;;;;;;;1.27;0.40;;;14.20;57.80;;;;;;4970822;28;20058;-84
2021/09/30 14:46:17;;;;;;;1.00;0.38;;;14.20;58.30;;;;;;4991997;28;20038;-84
2021/09/30 14:48:44;;;;;;;2.67;0.45;;;14.20;57.40;;;;;;4990311;28;20038;-84
2021/09/30 14:51:11;;;;;;;0.60;0.45;;;14.30;56.80;;;;;;4990351;28;20030;-84
2021/09/30 14:53:39;;;;;;;1.17;0.30;;;14.30;58.40;;;;;;4991583;28;20076;-84
2021/09/30 14:56:06;;;;;;;0.20;0.20;;;14.20;56.10;;;;;;4989112;28;20057;-84
2021/09/30 14:58:35;;;;;;;0.93;0.50;;;14.30;57.20;;;;;;4991738;28;20109;-84
2021/09/30 15:01:03;;;;;;;1.25;0.85;;;14.30;57.90;;;;;;4992816;28;20045;-84
2021/09/30 15:03:29;;;;;;;0.80;0.50;;;14.40;59.00;;;;;;4998908;28;20038;-84
2021/09/30 15:05:55;;;;;;;1.25;0.30;;;14.40;58.80;;;;;;4993649;28;20425;-83
2021/09/30 15:08:22;;;;;;;0.57;0.35;;;14.40;57.60;;;;;;4987442;28;20120;-83
2021/09/30 15:10:48;;;;;;;0.30;0.30;;;14.30;56.60;;;;;;4993914;28;20581;-84
2021/09/30 15:13:14;;;;;;;1.23;0.35;;;14.30;58.50;;;;;;4989573;28;20032;-82
2021/09/30 15:15:40;;;;;;;1.30;0.52;;;14.20;57.00;;;;;;4983770;28;20117;-85
2021/09/30 15:18:09;;;;;;;0.20;0.20;;;14.10;56.10;;;;;;4990041;28;20026;-86
2021/09/30 15:23:03;;;;;;;0.85;0.32;;;14.00;59.00;;;;;;4991042;28;20034;-84
2021/09/30 15:25:30;;;;;;;0.65;0.65;;;14.10;59.30;;;;;;4993185;28;20109;-85
2021/09/30 15:27:59;;;;;;;1.45;0.35;;;14.10;59.10;;;;;;5004550;28;20031;-84
2021/09/30 15:30:25;;;;;;;0.32;0.32;;;14.10;59.30;;;;;;4990830;28;20038;-83
2021/09/30 15:32:54;;;;;;;0.75;0.40;;;14.10;59.40;;;;;;4993913;28;20560;-86
2021/09/30 15:35:21;;;;;;;1.48;0.30;;;14.00;59.40;;;;;;4990886;28;20049;-84
2021/09/30 15:37:47;;;;;;;1.65;0.40;;;14.10;59.70;;;;;;5010496;28;20030;-84
2021/09/30 15:40:15;;;;;;;1.05;0.38;;;14.10;59.60;;;;;;4993001;28;20045;-84
2021/09/30 15:42:41;;;;;;;0.95;0.50;;;14.00;60.70;;;;;;5009756;28;20025;-82
2021/09/30 15:45:07;;;;;;;0.30;0.30;;;14.00;60.90;;;;;;4987495;28;20033;-85
2021/09/30 15:47:34;;;;;;;0.40;0.40;;;14.00;60.50;;;;;;4987727;28;20974;-84
2021/09/30 15:50:00;;;;;;;0.75;0.40;;;14.00;61.80;;;;;;4991088;28;20034;-84
2021/09/30 15:52:25;;;;;;;1.20;0.30;;;13.90;61.40;;;;;;4993210;28;20033;-83
2021/09/30 15:54:51;;;;;;;1.73;0.52;;;13.90;62.20;;;;;;4991505;28;20141;-84
2021/09/30 15:57:18;;;;;;;0.20;0.20;;;13.90;63.40;;;;;;4990659;28;20057;-83
2021/09/30 15:59:44;;;;;;;0.70;0.40;;;13.80;63.00;;;;;;4991494;28;20567;-83
2021/09/30 16:02:09;;;;;;;1.35;0.50;;;13.90;63.40;;;;;;4989097;28;20134;-84